Arendtsville, Pennsylvania
Current Conditions -  °F | °C
As of 8:53 AM on Thursday 29 Jan 2015 (Local Time) from KRYT Reporting Station
Clear Clear  
Wind Chill: 20°   Ceiling: Unl
Heat Index: 20°   Visibility: 10mi
Dew Point:   Wind: 0mph
Humidity: 60%   Direction: NA
Pressure: 30.23"   Gusts: NA
Location:  39.92°N, 77.3°W
Report Text: KRYT 291353Z AUTO 00000KT 10SM CLR M07/M13 A3023 RMK AO2 SLP260 T10671133 $
Loading
Personal Weather Stations






























Interactive Weather Map New forecast layout! Learn more

10-Day Weather Forecast

Advertisements
Track Severe Weather on mobile